createdAt,value
2022-10-15T00:01:22.117Z,21.20
2022-10-15T00:03:49.007Z,20.60
2022-10-15T00:06:20.133Z,21.73
2022-10-15T00:08:48.039Z,22.10
2022-10-15T00:11:22.707Z,21.50
2022-10-15T00:13:50.597Z,21.55
2022-10-15T00:16:21.949Z,22.73
2022-10-15T00:18:49.990Z,21.63
2022-10-15T00:21:19.219Z,21.52
2022-10-15T00:23:47.883Z,21.45
2022-10-15T00:26:22.775Z,21.88
2022-10-15T00:28:52.794Z,22.52
2022-10-15T00:31:26.221Z,22.67
2022-10-15T00:33:57.182Z,21.60
2022-10-15T00:36:32.820Z,22.00
2022-10-15T00:39:00.467Z,22.75
2022-10-15T00:41:35.307Z,24.65
2022-10-15T00:44:21.995Z,21.80
2022-10-15T00:46:52.615Z,23.45
2022-10-15T00:49:53.573Z,23.35
2022-10-15T00:52:32.428Z,23.67
2022-10-15T00:55:10.697Z,22.85
2022-10-15T00:57:38.568Z,24.95
2022-10-15T01:00:12.073Z,23.73
2022-10-15T01:02:39.944Z,24.50
2022-10-15T01:05:08.764Z,25.13
2022-10-15T01:07:35.611Z,24.70
2022-10-15T01:10:04.038Z,24.77
2022-10-15T01:12:52.468Z,23.38
2022-10-15T01:15:49.660Z,24.10
2022-10-15T01:18:45.648Z,22.10
2022-10-15T01:21:34.347Z,23.98
2022-10-15T01:24:01.187Z,24.88
2022-10-15T01:27:03.077Z,25.08
2022-10-15T01:30:15.916Z,26.08
2022-10-15T01:32:56.053Z,24.70
2022-10-15T01:35:47.131Z,25.38
2022-10-15T01:38:22.400Z,26.17
2022-10-15T01:40:58.911Z,24.20
2022-10-15T01:43:51.596Z,23.15
2022-10-15T01:46:58.807Z,26.67
2022-10-15T01:49:34.327Z,23.45
2022-10-15T01:52:14.693Z,23.73
2022-10-15T01:54:43.659Z,24.63
2022-10-15T01:57:12.190Z,22.98
2022-10-15T01:59:42.297Z,22.95
2022-10-15T02:02:09.056Z,25.13
2022-10-15T02:04:35.896Z,26.88
2022-10-15T02:07:16.399Z,26.45
2022-10-15T02:09:52.339Z,26.80
2022-10-15T02:12:47.136Z,26.50
2022-10-15T02:15:25.460Z,24.85
2022-10-15T02:18:11.487Z,27.38
2022-10-15T02:20:49.152Z,28.90
2022-10-15T02:23:27.185Z,27.00
2022-10-15T02:25:59.669Z,28.48
2022-10-15T02:28:29.265Z,27.30
2022-10-15T02:30:58.407Z,25.02
2022-10-15T02:33:27.571Z,26.63
2022-10-15T02:35:55.683Z,27.17
2022-10-15T02:38:26.979Z,28.40
2022-10-15T02:40:54.918Z,27.77
2022-10-15T02:43:22.507Z,29.02
2022-10-15T02:45:50.573Z,27.10
2022-10-15T02:48:18.373Z,25.10
2022-10-15T02:50:47.039Z,26.35
2022-10-15T02:53:14.332Z,26.02
2022-10-15T02:55:42.944Z,25.48
2022-10-15T02:58:09.875Z,26.00
2022-10-15T03:00:36.784Z,26.45
2022-10-15T03:03:03.791Z,25.02
2022-10-15T03:05:30.752Z,26.20
2022-10-15T03:08:00.359Z,24.48
2022-10-15T03:10:28.138Z,25.35
2022-10-15T03:12:54.966Z,24.70
2022-10-15T03:15:22.548Z,23.23
2022-10-15T03:17:50.456Z,24.83
2022-10-15T03:20:18.005Z,23.77
2022-10-15T03:22:44.841Z,24.45
2022-10-15T03:25:12.051Z,22.73
2022-10-15T03:27:39.369Z,23.38
2022-10-15T03:30:18.972Z,22.02
2022-10-15T03:32:48.199Z,24.35
2022-10-15T03:35:15.748Z,23.05
2022-10-15T03:37:42.660Z,22.30
2022-10-15T03:40:13.540Z,21.65
2022-10-15T03:42:41.720Z,22.55
2022-10-15T03:45:10.240Z,21.67
2022-10-15T03:47:37.555Z,21.58
2022-10-15T03:50:04.936Z,21.58
2022-10-15T03:52:31.700Z,22.80
2022-10-15T03:54:59.577Z,22.88
2022-10-15T03:57:26.317Z,22.30
2022-10-15T03:59:59.664Z,22.27
2022-10-15T04:02:31.322Z,25.00
2022-10-15T04:04:58.093Z,25.25
2022-10-15T04:07:25.531Z,23.23
2022-10-15T04:09:52.394Z,22.88
2022-10-15T04:12:22.988Z,23.83
2022-10-15T04:14:50.111Z,24.63
2022-10-15T04:17:17.836Z,25.35
2022-10-15T04:19:45.090Z,23.13
2022-10-15T04:22:13.960Z,25.05
2022-10-15T04:24:46.573Z,25.48
2022-10-15T04:27:23.043Z,26.52
2022-10-15T04:29:50.251Z,24.60
2022-10-15T04:32:17.617Z,24.33
2022-10-15T04:34:46.744Z,25.13
2022-10-15T04:37:14.923Z,24.25
2022-10-15T04:39:41.968Z,24.60
2022-10-15T04:42:12.278Z,25.23
2022-10-15T04:44:40.205Z,24.02
2022-10-15T04:47:07.201Z,24.70
2022-10-15T04:49:34.031Z,25.40
2022-10-15T04:52:06.384Z,25.23
2022-10-15T04:54:55.624Z,23.88
2022-10-15T04:57:22.786Z,25.38
2022-10-15T04:59:53.875Z,25.45
2022-10-15T05:02:43.650Z,24.88
2022-10-15T05:05:21.886Z,24.25
2022-10-15T05:08:04.341Z,25.60
2022-10-15T05:10:37.488Z,25.23
2022-10-15T05:13:06.516Z,24.52
2022-10-15T05:15:36.038Z,24.50
2022-10-15T05:18:06.452Z,26.00
2022-10-15T05:20:42.652Z,24.50
2022-10-15T05:23:13.978Z,24.05
2022-10-15T05:25:43.675Z,24.65
2022-10-15T05:28:16.987Z,26.70
2022-10-15T05:30:43.781Z,25.25
2022-10-15T05:33:11.742Z,28.50
2022-10-15T05:35:39.312Z,28.05
2022-10-15T05:38:06.228Z,28.60
2022-10-15T05:40:33.302Z,30.15
2022-10-15T05:43:10.030Z,30.77
2022-10-15T05:45:36.830Z,31.00
2022-10-15T05:48:05.896Z,32.92
2022-10-15T05:50:33.072Z,32.65
2022-10-15T05:53:02.091Z,34.78
2022-10-15T05:55:41.834Z,32.45
2022-10-15T05:58:08.619Z,34.55
2022-10-15T06:00:36.429Z,36.65
2022-10-15T06:03:03.589Z,35.55
2022-10-15T06:05:31.816Z,35.20
2022-10-15T06:07:58.604Z,35.15
2022-10-15T06:10:25.485Z,35.83
2022-10-15T06:12:52.366Z,36.53
2022-10-15T06:15:19.700Z,36.67
2022-10-15T06:17:46.515Z,36.97
2022-10-15T06:20:13.619Z,36.20
2022-10-15T06:22:40.504Z,35.83
2022-10-15T06:25:09.106Z,37.95
2022-10-15T06:27:35.912Z,36.33
2022-10-15T06:30:03.698Z,38.03
2022-10-15T06:32:30.439Z,36.08
2022-10-15T06:34:57.335Z,35.22
2022-10-15T06:37:24.559Z,37.83
2022-10-15T06:39:54.840Z,35.65
2022-10-15T06:42:21.619Z,34.67
2022-10-15T06:44:48.322Z,35.72
2022-10-15T06:47:17.150Z,33.72
2022-10-15T06:49:46.077Z,34.13
2022-10-15T06:52:12.801Z,33.75
2022-10-15T06:54:39.699Z,33.00
2022-10-15T06:57:08.053Z,34.15
2022-10-15T06:59:38.482Z,30.85
2022-10-15T07:02:10.795Z,32.33
2022-10-15T07:04:37.516Z,32.92
2022-10-15T07:07:04.267Z,31.92
2022-10-15T07:09:31.301Z,33.22
2022-10-15T07:11:58.064Z,32.80
2022-10-15T07:14:24.776Z,34.25
2022-10-15T07:16:51.579Z,32.63
2022-10-15T07:19:18.514Z,32.20
2022-10-15T07:21:46.788Z,31.45
2022-10-15T07:24:13.951Z,33.20
2022-10-15T07:26:40.703Z,31.70
2022-10-15T07:29:07.437Z,31.17
2022-10-15T07:31:34.780Z,30.40
2022-10-15T07:34:01.619Z,27.95
2022-10-15T07:36:28.449Z,27.58
2022-10-15T07:38:55.285Z,26.85
2022-10-15T07:41:22.025Z,24.52
2022-10-15T07:43:51.721Z,23.17
2022-10-15T07:46:18.500Z,23.73
2022-10-15T07:48:45.296Z,23.05
2022-10-15T07:51:12.580Z,20.55
2022-10-15T07:53:39.581Z,20.65
2022-10-15T07:56:12.562Z,21.77
2022-10-15T07:58:40.502Z,21.05
2022-10-15T08:01:09.736Z,21.50
2022-10-15T08:03:37.908Z,20.70
2022-10-15T08:06:07.460Z,22.17
2022-10-15T08:08:35.776Z,20.90
2022-10-15T08:11:14.046Z,21.20
2022-10-15T08:13:42.300Z,20.10
2022-10-15T08:16:11.983Z,20.40
2022-10-15T08:18:39.278Z,19.92
2022-10-15T08:21:08.471Z,20.30
2022-10-15T08:23:36.047Z,18.73
2022-10-15T08:26:04.111Z,19.83
2022-10-15T08:28:32.911Z,18.50
2022-10-15T08:31:05.191Z,18.75
2022-10-15T08:33:35.344Z,18.33
2022-10-15T08:36:05.348Z,17.50
2022-10-15T08:38:32.451Z,17.25
2022-10-15T08:41:02.532Z,17.40
2022-10-15T08:43:38.106Z,17.83
2022-10-15T08:48:54.995Z,17.08
2022-10-15T08:51:46.873Z,17.00
2022-10-15T08:54:18.619Z,15.88
2022-10-15T08:56:53.459Z,16.27
2022-10-15T08:59:39.660Z,15.88
2022-10-15T09:02:20.115Z,15.07
2022-10-15T09:05:09.562Z,14.25
2022-10-15T09:08:00.526Z,16.08
2022-10-15T09:10:55.283Z,14.10
2022-10-15T09:13:43.713Z,12.70
2022-10-15T09:16:23.915Z,14.10
2022-10-15T09:18:53.097Z,12.95
2022-10-15T09:21:25.918Z,12.48
2022-10-15T09:24:04.259Z,12.05
2022-10-15T09:26:47.197Z,10.27
2022-10-15T09:29:38.194Z,10.15
2022-10-15T09:32:15.644Z,11.25
2022-10-15T09:34:54.336Z,10.63
2022-10-15T09:37:47.886Z,11.15
2022-10-15T09:40:28.414Z,10.45
2022-10-15T09:42:58.649Z,10.55
2022-10-15T09:45:25.420Z,11.10
2022-10-15T09:48:00.085Z,10.52
2022-10-15T09:50:42.621Z,11.07
2022-10-15T09:53:22.247Z,11.25
2022-10-15T09:56:13.547Z,11.23
2022-10-15T09:58:56.097Z,12.65
2022-10-15T10:01:24.806Z,12.13
2022-10-15T10:04:18.869Z,12.43
2022-10-15T10:06:51.410Z,11.45
2022-10-15T10:09:36.871Z,12.05
2022-10-15T10:12:19.842Z,13.80
2022-10-15T10:15:00.858Z,13.20
2022-10-15T10:17:30.132Z,13.38
2022-10-15T10:20:20.674Z,12.90
2022-10-15T10:22:52.604Z,12.70
2022-10-15T10:25:40.460Z,13.65
2022-10-15T10:28:23.912Z,13.30
2022-10-15T10:30:53.277Z,13.70
2022-10-15T10:33:32.013Z,13.63
2022-10-15T10:36:00.218Z,12.35
2022-10-15T10:38:35.185Z,12.82
2022-10-15T10:41:11.784Z,12.95
2022-10-15T10:43:54.707Z,12.20
2022-10-15T10:46:24.379Z,11.80
2022-10-15T10:48:53.726Z,11.05
2022-10-15T10:51:26.843Z,10.88
2022-10-15T10:54:06.481Z,10.65
2022-10-15T10:56:40.927Z,10.13
2022-10-15T10:59:31.159Z,8.50
2022-10-15T11:01:58.137Z,8.82
2022-10-15T11:04:28.916Z,7.93
2022-10-15T11:07:01.755Z,7.90
2022-10-15T11:10:02.442Z,6.90
2022-10-15T11:12:59.693Z,6.93
2022-10-15T11:15:56.187Z,7.30
2022-10-15T11:18:55.086Z,6.57
2022-10-15T11:21:43.061Z,6.43
2022-10-15T11:24:48.491Z,5.70
2022-10-15T11:27:46.433Z,5.65
2022-10-15T11:30:51.784Z,6.00
2022-10-15T11:33:32.939Z,5.68
2022-10-15T11:36:56.440Z,5.43
2022-10-15T11:39:57.572Z,5.68
2022-10-15T11:42:42.909Z,6.07
2022-10-15T11:45:15.698Z,5.60
2022-10-15T11:48:00.353Z,5.90
2022-10-15T11:50:46.705Z,5.47
2022-10-15T11:53:50.853Z,5.25
2022-10-15T11:56:36.488Z,5.80
2022-10-15T11:59:17.508Z,5.05
2022-10-15T12:01:57.997Z,4.93
2022-10-15T12:04:44.845Z,4.80
2022-10-15T12:07:21.842Z,4.65
2022-10-15T12:09:54.463Z,5.00
2022-10-15T12:12:43.425Z,5.15
2022-10-15T12:15:28.237Z,6.10
2022-10-15T12:18:41.045Z,7.00
2022-10-15T12:21:32.991Z,5.30
2022-10-15T12:24:00.870Z,5.32
2022-10-15T12:26:32.399Z,5.35
2022-10-15T12:29:05.011Z,5.15
2022-10-15T12:31:51.075Z,5.68
2022-10-15T12:34:36.564Z,6.32
2022-10-15T12:37:27.852Z,6.00
2022-10-15T12:40:04.135Z,6.85
2022-10-15T12:42:39.464Z,6.65
2022-10-15T12:45:22.750Z,6.88
2022-10-15T12:47:55.320Z,6.78
2022-10-15T12:50:35.116Z,6.63
2022-10-15T12:53:07.071Z,6.15
2022-10-15T12:55:39.964Z,6.28
2022-10-15T12:58:39.383Z,6.03
2022-10-15T13:01:27.077Z,5.80
2022-10-15T13:04:00.354Z,5.65
2022-10-15T13:06:38.195Z,5.35
2022-10-15T13:09:10.152Z,5.68
2022-10-15T13:11:53.063Z,6.20
2022-10-15T13:14:42.750Z,6.50
2022-10-15T13:17:20.705Z,6.07
2022-10-15T13:20:08.026Z,5.70
2022-10-15T13:22:36.758Z,6.30
2022-10-15T13:25:04.182Z,6.65
2022-10-15T13:27:37.550Z,6.50
2022-10-15T13:30:09.471Z,6.35
2022-10-15T13:32:45.759Z,5.80
2022-10-15T13:35:33.004Z,5.93
2022-10-15T13:38:02.695Z,5.88
2022-10-15T13:40:32.330Z,6.07
2022-10-15T13:43:02.212Z,6.43
2022-10-15T13:45:30.339Z,6.43
2022-10-15T13:47:57.500Z,5.60
2022-10-15T13:50:32.379Z,6.80
2022-10-15T13:53:27.107Z,7.20
2022-10-15T13:56:01.303Z,6.38
2022-10-15T13:58:36.266Z,6.28
2022-10-15T14:01:20.922Z,6.70
2022-10-15T14:03:56.688Z,6.68
2022-10-15T14:06:33.773Z,6.63
2022-10-15T14:09:30.430Z,5.47
2022-10-15T14:12:02.207Z,4.40
2022-10-15T14:14:43.838Z,3.95
2022-10-15T14:17:17.388Z,3.47
2022-10-15T14:20:14.422Z,3.60
2022-10-15T14:22:40.045Z,3.40
2022-10-15T14:27:46.099Z,2.70
2022-10-15T14:30:36.677Z,2.28
2022-10-15T14:33:04.149Z,2.60
2022-10-15T14:35:37.081Z,2.55
2022-10-15T14:38:08.204Z,2.05
2022-10-15T14:40:35.014Z,2.15
2022-10-15T14:43:15.049Z,1.50
2022-10-15T14:45:53.369Z,1.38
2022-10-15T14:48:33.620Z,0.90
2022-10-15T14:51:06.656Z,1.20
2022-10-15T14:53:43.808Z,1.10
2022-10-15T14:56:23.976Z,1.48
2022-10-15T14:58:57.551Z,1.50
2022-10-15T15:01:25.194Z,1.50
2022-10-15T15:03:56.994Z,1.23
2022-10-15T15:06:23.806Z,1.15
2022-10-15T15:08:50.631Z,0.90
2022-10-15T15:11:25.302Z,0.90
2022-10-15T15:13:53.676Z,0.70
2022-10-15T15:16:20.500Z,0.77
2022-10-15T15:18:48.614Z,0.63
2022-10-15T15:21:23.598Z,0.80
2022-10-15T15:23:51.025Z,0.50
2022-10-15T15:26:17.847Z,0.70
2022-10-15T15:28:44.832Z,0.82
2022-10-15T15:31:18.180Z,1.27
2022-10-15T15:33:45.913Z,1.00
2022-10-15T15:36:23.272Z,0.88
2022-10-15T15:38:50.710Z,1.15
2022-10-15T15:41:23.894Z,0.80
2022-10-15T15:43:51.779Z,1.00
2022-10-15T15:46:18.645Z,0.90
2022-10-15T15:48:45.494Z,1.15
2022-10-15T15:51:31.673Z,1.25
2022-10-15T15:53:59.347Z,1.85
2022-10-15T15:56:26.336Z,1.30
2022-10-15T15:58:53.140Z,1.10
2022-10-15T16:01:21.032Z,1.10
2022-10-15T16:03:48.201Z,0.90
2022-10-15T16:06:15.017Z,1.27
2022-10-15T16:08:41.813Z,1.20
2022-10-15T16:11:08.703Z,0.93
2022-10-15T16:13:35.675Z,0.90
2022-10-15T16:16:02.966Z,1.10
2022-10-15T16:18:30.149Z,0.82
2022-10-15T16:20:57.545Z,1.10
2022-10-15T16:23:24.316Z,0.85
2022-10-15T16:25:51.159Z,1.20
2022-10-15T16:28:17.932Z,0.95
2022-10-15T16:30:44.712Z,1.00
2022-10-15T16:33:11.719Z,1.02
2022-10-15T16:35:38.740Z,0.80
2022-10-15T16:38:06.012Z,1.33
2022-10-15T16:40:33.521Z,1.25
2022-10-15T16:43:00.592Z,1.15
2022-10-15T16:45:27.315Z,1.05
2022-10-15T16:47:54.375Z,1.50
2022-10-15T16:50:21.227Z,1.40
2022-10-15T16:52:47.994Z,1.25
2022-10-15T16:55:16.558Z,1.20
2022-10-15T16:57:43.827Z,1.55
2022-10-15T17:00:11.510Z,1.10
2022-10-15T17:02:38.280Z,1.20
2022-10-15T17:05:05.665Z,1.75
2022-10-15T17:07:32.393Z,1.40
2022-10-15T17:09:59.118Z,1.10
2022-10-15T17:12:26.148Z,1.20
2022-10-15T17:14:53.156Z,1.38
2022-10-15T17:17:20.175Z,1.55
2022-10-15T17:19:46.982Z,1.80
2022-10-15T17:22:13.773Z,1.80
2022-10-15T17:24:40.549Z,1.20
2022-10-15T17:27:07.276Z,1.67
2022-10-15T17:29:34.133Z,1.50
2022-10-15T17:32:02.745Z,1.45
2022-10-15T17:34:29.925Z,1.45
2022-10-15T17:36:57.339Z,1.67
2022-10-15T17:39:24.251Z,1.80
2022-10-15T17:41:52.206Z,1.85
2022-10-15T17:44:20.173Z,1.50
2022-10-15T17:49:26.008Z,1.63
2022-10-15T17:51:52.842Z,1.83
2022-10-15T17:54:19.710Z,1.65
2022-10-15T17:56:48.476Z,1.90
2022-10-15T17:59:15.504Z,1.70
2022-10-15T18:02:00.208Z,1.80
2022-10-15T18:04:30.742Z,2.30
2022-10-15T18:06:57.647Z,2.17
2022-10-15T18:09:28.043Z,1.85
2022-10-15T18:11:56.860Z,1.63
2022-10-15T18:14:31.699Z,1.58
2022-10-15T18:16:58.759Z,1.88
2022-10-15T18:19:26.580Z,1.90
2022-10-15T18:21:53.871Z,1.50
2022-10-15T18:24:23.108Z,1.88
2022-10-15T18:26:50.899Z,1.60
2022-10-15T18:29:18.227Z,1.50
2022-10-15T18:31:46.830Z,1.40
2022-10-15T18:34:13.946Z,1.60
2022-10-15T18:36:42.341Z,1.65
2022-10-15T18:39:09.530Z,1.50
2022-10-15T18:41:38.071Z,1.52
2022-10-15T18:44:08.695Z,1.30
2022-10-15T18:46:35.741Z,0.93
2022-10-15T18:49:03.115Z,1.20
2022-10-15T18:51:31.059Z,1.15
2022-10-15T18:54:00.046Z,1.40
2022-10-15T18:56:27.450Z,1.33
2022-10-15T18:58:54.484Z,1.30
2022-10-15T19:01:33.783Z,1.58
2022-10-15T19:04:08.383Z,1.63
2022-10-15T19:06:39.612Z,1.27
2022-10-15T19:09:10.947Z,1.40
2022-10-15T19:11:39.978Z,1.88
2022-10-15T19:14:07.678Z,1.50
2022-10-15T19:16:35.676Z,1.50
2022-10-15T19:19:05.483Z,1.77
2022-10-15T19:21:32.595Z,1.95
2022-10-15T19:24:00.175Z,1.30
2022-10-15T19:26:28.342Z,1.42
2022-10-15T19:28:57.289Z,1.20
2022-10-15T19:31:31.053Z,1.20
2022-10-15T19:33:59.121Z,1.23
2022-10-15T19:36:33.708Z,1.50
2022-10-15T19:39:04.271Z,1.10
2022-10-15T19:41:31.388Z,1.48
2022-10-15T19:43:58.162Z,1.40
2022-10-15T19:46:26.664Z,1.70
2022-10-15T19:48:53.512Z,1.90
2022-10-15T19:51:21.551Z,1.73
2022-10-15T19:53:56.229Z,1.67
2022-10-15T19:56:23.343Z,1.33
2022-10-15T19:58:59.388Z,1.73
2022-10-15T20:01:27.461Z,1.20
2022-10-15T20:04:00.280Z,2.10
2022-10-15T20:06:30.117Z,1.20
2022-10-15T20:08:56.955Z,1.00
2022-10-15T20:11:24.831Z,1.08
2022-10-15T20:13:53.088Z,1.00
2022-10-15T20:16:22.988Z,1.50
2022-10-15T20:18:50.660Z,1.08
2022-10-15T20:21:18.078Z,1.50
2022-10-15T20:23:47.718Z,1.15
2022-10-15T20:26:16.064Z,1.10
2022-10-15T20:28:45.574Z,1.40
2022-10-15T20:31:20.503Z,1.08
2022-10-15T20:33:48.946Z,1.75
2022-10-15T20:36:22.570Z,1.23
2022-10-15T20:38:51.522Z,1.20
2022-10-15T20:41:19.248Z,1.35
2022-10-15T20:43:47.120Z,1.20
2022-10-15T20:46:22.148Z,1.10
2022-10-15T20:48:49.622Z,1.55
2022-10-15T20:51:20.661Z,1.50
2022-10-15T20:53:49.875Z,1.40
2022-10-15T20:56:16.652Z,1.30
2022-10-15T20:58:44.902Z,1.30
2022-10-15T21:01:11.667Z,1.52
2022-10-15T21:03:38.424Z,1.13
2022-10-15T21:06:05.279Z,1.20
2022-10-15T21:08:32.040Z,1.52
2022-10-15T21:11:07.839Z,1.30
2022-10-15T21:13:34.880Z,1.20
2022-10-15T21:16:05.721Z,1.50
2022-10-15T21:18:34.138Z,1.10
2022-10-15T21:21:10.826Z,1.30
2022-10-15T21:23:41.098Z,1.35
2022-10-15T21:26:10.715Z,1.42
2022-10-15T21:28:38.496Z,1.60
2022-10-15T21:31:12.183Z,1.52
2022-10-15T21:33:39.630Z,1.30
2022-10-15T21:36:24.569Z,1.42
2022-10-15T21:39:00.868Z,1.85
2022-10-15T21:41:31.196Z,1.10
2022-10-15T21:43:59.763Z,1.13
2022-10-15T21:46:27.850Z,1.55
2022-10-15T21:48:55.059Z,1.40
2022-10-15T21:51:26.806Z,1.60
2022-10-15T21:53:55.214Z,1.50
2022-10-15T21:56:22.749Z,1.42
2022-10-15T21:58:49.824Z,1.52
2022-10-15T22:01:24.124Z,1.65
2022-10-15T22:03:53.864Z,1.52
2022-10-15T22:06:21.146Z,1.75
2022-10-15T22:08:48.387Z,1.67
2022-10-15T22:11:21.229Z,1.48
2022-10-15T22:13:51.842Z,1.40
2022-10-15T22:16:19.726Z,1.42
2022-10-15T22:18:47.341Z,2.03
2022-10-15T22:21:36.321Z,1.20
2022-10-15T22:24:08.223Z,1.60
2022-10-15T22:26:39.223Z,2.00
2022-10-15T22:29:09.109Z,1.33
2022-10-15T22:31:35.947Z,2.20
2022-10-15T22:34:02.803Z,1.63
2022-10-15T22:36:31.670Z,1.52
2022-10-15T22:39:02.190Z,1.63
2022-10-15T22:41:36.870Z,1.83
2022-10-15T22:44:03.937Z,1.30
2022-10-15T22:46:35.261Z,1.30
2022-10-15T22:49:02.356Z,1.65
2022-10-15T22:51:29.712Z,1.42
2022-10-15T22:53:58.076Z,1.30
2022-10-15T22:56:26.668Z,1.52
2022-10-15T22:58:55.421Z,1.00
2022-10-15T23:01:31.919Z,1.33
2022-10-15T23:04:04.195Z,1.40
2022-10-15T23:06:33.507Z,1.08
2022-10-15T23:09:02.085Z,1.30
2022-10-15T23:11:32.976Z,1.23
2022-10-15T23:14:11.199Z,1.30
2022-10-15T23:16:44.570Z,1.23
2022-10-15T23:19:21.773Z,1.23
2022-10-15T23:21:58.403Z,1.13
2022-10-15T23:24:27.362Z,1.45
2022-10-15T23:26:54.915Z,1.58
2022-10-15T23:29:25.210Z,1.25
2022-10-15T23:31:54.249Z,1.27
2022-10-15T23:34:24.774Z,1.45
2022-10-15T23:36:52.751Z,1.83
2022-10-15T23:39:24.029Z,1.30
2022-10-15T23:41:50.954Z,1.70
2022-10-15T23:44:18.563Z,1.45
2022-10-15T23:46:45.914Z,1.90
2022-10-15T23:49:13.220Z,2.45
2022-10-15T23:51:40.766Z,1.70
2022-10-15T23:54:16.090Z,1.83
2022-10-15T23:56:43.376Z,2.00
2022-10-15T23:59:10.209Z,1.50
